Time;durP1;ratioP1;P1;durP2;ratioP2;P2;SDS_P1;SDS_P2;PMS_P1;PMS_P2;Temp;Humidity;BMP_temperature;BMP_pressure;BME280_temperature;BME280_humidity;BME280_pressure;Samples;Min_cycle;Max_cycle;Signal;HPM_P1;HPM_P2
2022/07/29 00:00:28;;;;;;;4.80;2.10;;;;;;;;;;4950452;28;20526;-88
2022/07/29 00:02:53;;;;;;;5.25;3.75;;;;;;;;;;4951719;28;20043;-89
2022/07/29 00:05:19;;;;;;;3.17;2.10;;;;;;;;;;4963089;28;20063;-89
2022/07/29 00:07:44;;;;;;;5.03;1.85;;;;;;;;;;4965625;28;20380;-89
2022/07/29 00:10:10;;;;;;;2.00;1.77;;;;;;;;;;4952134;29;20035;-90
2022/07/29 00:12:35;;;;;;;5.63;2.42;;;;;;;;;;4951235;28;20043;-89
2022/07/29 00:15:01;;;;;;;4.25;1.95;;;;;;;;;;4951658;28;20047;-89
2022/07/29 00:17:26;;;;;;;3.42;2.08;;;;;;;;;;4952141;28;20035;-89
2022/07/29 00:19:52;;;;;;;4.20;2.30;;;;;;;;;;4952207;28;20069;-89
2022/07/29 00:22:18;;;;;;;3.30;2.30;;;;;;;;;;4951528;28;20038;-88
2022/07/29 00:24:43;;;;;;;3.83;2.33;;;;;;;;;;4952786;28;20036;-89
2022/07/29 00:27:09;;;;;;;3.80;2.08;;;;;;;;;;4950437;28;20513;-88
2022/07/29 00:29:34;;;;;;;4.00;1.90;;;;;;;;;;4966125;28;20450;-88
2022/07/29 00:32:00;;;;;;;2.67;1.88;;;;;;;;;;4967315;28;20106;-89
2022/07/29 00:37:09;;;;;;;4.88;2.30;;;;;;;;;;4952851;28;20053;-89
2022/07/29 00:39:34;;;;;;;3.75;2.28;;;;;;;;;;4948938;28;20035;-89
2022/07/29 00:42:03;;;;;;;5.28;2.10;;;;;;;;;;4966641;28;20035;-88
2022/07/29 00:44:28;;;;;;;3.42;2.17;;;;;;;;;;4951700;28;20039;-88
2022/07/29 00:46:55;;;;;;;4.88;2.30;;;;;;;;;;4949931;28;20032;-89
2022/07/29 00:49:20;;;;;;;2.95;2.00;;;;;;;;;;4950794;29;20027;-88
2022/07/29 00:51:46;;;;;;;3.45;2.10;;;;;;;;;;4950871;28;20040;-89
2022/07/29 00:54:12;;;;;;;7.32;2.55;;;;;;;;;;4949564;28;20116;-87
2022/07/29 00:56:37;;;;;;;3.42;2.15;;;;;;;;;;4949608;28;20031;-88
2022/07/29 00:59:03;;;;;;;3.42;1.90;;;;;;;;;;4950408;28;20036;-88
2022/07/29 01:01:28;;;;;;;4.10;2.25;;;;;;;;;;4950254;28;20030;-87
2022/07/29 01:03:54;;;;;;;5.43;2.38;;;;;;;;;;4949834;29;20024;-88
2022/07/29 01:06:20;;;;;;;4.38;2.38;;;;;;;;;;4949329;28;20035;-87
2022/07/29 01:08:47;;;;;;;4.70;2.40;;;;;;;;;;4949098;28;20039;-87
2022/07/29 01:11:14;;;;;;;9.02;2.60;;;;;;;;;;4965475;28;20042;-87
2022/07/29 01:13:41;;;;;;;7.30;2.90;;;;;;;;;;4947570;28;20046;-87
2022/07/29 01:16:24;;;;;;;3.95;2.50;;;;;;;;;;4951471;28;20058;-88
2022/07/29 01:18:56;;;;;;;3.30;1.98;;;;;;;;;;4952717;28;20514;-87
2022/07/29 01:21:40;;;;;;;4.22;2.10;;;;;;;;;;4950825;28;20570;-87
2022/07/29 01:24:24;;;;;;;3.13;2.08;;;;;;;;;;4968847;28;20031;-87
2022/07/29 01:27:27;;;;;;;4.00;2.00;;;;;;;;;;4967414;28;20051;-87
2022/07/29 01:30:00;;;;;;;3.97;2.05;;;;;;;;;;4949629;28;20038;-87
2022/07/29 01:32:32;;;;;;;3.95;2.47;;;;;;;;;;4951501;28;20043;-87
2022/07/29 01:35:16;;;;;;;2.83;2.05;;;;;;;;;;4949151;28;20522;-87
2022/07/29 01:37:48;;;;;;;4.82;2.47;;;;;;;;;;4947272;28;20028;-87
2022/07/29 01:40:21;;;;;;;5.55;2.35;;;;;;;;;;4953084;28;20019;-86
2022/07/29 01:42:54;;;;;;;5.45;2.20;;;;;;;;;;4951955;28;20118;-87
2022/07/29 01:45:43;;;;;;;5.22;2.20;;;;;;;;;;4952981;28;20081;-87
2022/07/29 01:48:31;;;;;;;6.32;2.33;;;;;;;;;;4949489;28;20040;-86
2022/07/29 01:51:04;;;;;;;4.35;2.10;;;;;;;;;;4950424;28;20055;-86
2022/07/29 01:53:35;;;;;;;3.35;2.00;;;;;;;;;;4952691;28;20039;-86
2022/07/29 01:56:02;;;;;;;2.78;1.83;;;;;;;;;;4949223;28;20047;-86
2022/07/29 01:58:31;;;;;;;4.90;2.20;;;;;;;;;;4951754;28;20557;-86
2022/07/29 02:00:58;;;;;;;5.95;2.13;;;;;;;;;;4950315;28;20109;-86
2022/07/29 02:03:25;;;;;;;5.18;2.15;;;;;;;;;;4946861;28;20046;-85
2022/07/29 02:05:53;;;;;;;4.93;2.40;;;;;;;;;;4949491;28;20728;-86
2022/07/29 02:08:19;;;;;;;4.43;1.90;;;;;;;;;;4949906;28;20038;-86
2022/07/29 02:10:45;;;;;;;3.42;2.15;;;;;;;;;;4950096;28;20118;-85
2022/07/29 02:13:12;;;;;;;8.20;2.15;;;;;;;;;;4966070;28;20050;-85
2022/07/29 02:15:41;;;;;;;5.47;2.17;;;;;;;;;;4951375;28;20043;-86
2022/07/29 02:18:16;;;;;;;2.97;2.00;;;;;;;;;;4949516;28;20046;-85
2022/07/29 02:20:48;;;;;;;4.00;1.90;;;;;;;;;;4965412;28;20032;-85
2022/07/29 02:23:18;;;;;;;3.88;2.00;;;;;;;;;;4951520;28;20039;-86
2022/07/29 02:25:43;;;;;;;3.35;1.85;;;;;;;;;;4947128;28;20089;-86
2022/07/29 02:28:09;;;;;;;3.65;2.20;;;;;;;;;;4948840;28;20406;-85
2022/07/29 02:30:39;;;;;;;2.53;1.70;;;;;;;;;;4950898;28;20510;-86
2022/07/29 02:33:06;;;;;;;6.38;2.13;;;;;;;;;;4947111;28;20657;-86
2022/07/29 02:35:31;;;;;;;5.13;1.90;;;;;;;;;;4947394;28;20162;-86
2022/07/29 02:40:43;;;;;;;3.35;1.83;;;;;;;;;;4951099;28;20610;-85
2022/07/29 02:43:09;;;;;;;3.40;1.85;;;;;;;;;;4949040;29;20027;-86
2022/07/29 02:45:35;;;;;;;3.00;2.10;;;;;;;;;;4950529;28;20094;-86
2022/07/29 02:48:12;;;;;;;3.47;2.15;;;;;;;;;;4948792;28;20039;-85
2022/07/29 02:50:45;;;;;;;5.18;2.13;;;;;;;;;;4949399;28;20071;-85
2022/07/29 02:53:26;;;;;;;4.53;1.90;;;;;;;;;;4960510;28;20035;-85
2022/07/29 02:55:56;;;;;;;4.88;2.10;;;;;;;;;;4963643;28;20051;-85
2022/07/29 02:58:28;;;;;;;6.97;2.08;;;;;;;;;;4949500;29;20115;-86
2022/07/29 03:00:56;;;;;;;4.25;2.63;;;;;;;;;;4944148;29;20043;-85
2022/07/29 03:03:25;;;;;;;6.50;2.30;;;;;;;;;;4948317;29;20078;-85
2022/07/29 03:05:56;;;;;;;2.97;2.15;;;;;;;;;;4948714;28;20066;-85
2022/07/29 03:08:22;;;;;;;6.15;2.17;;;;;;;;;;4947174;28;20039;-85
2022/07/29 03:10:49;;;;;;;3.92;2.30;;;;;;;;;;4950490;28;20043;-85
2022/07/29 03:13:15;;;;;;;3.38;2.03;;;;;;;;;;4950198;28;20502;-85
2022/07/29 03:15:44;;;;;;;5.35;2.15;;;;;;;;;;4966315;28;20037;-86
2022/07/29 03:18:09;;;;;;;7.63;2.30;;;;;;;;;;4948478;28;20047;-86
2022/07/29 03:20:36;;;;;;;2.47;2.00;;;;;;;;;;4949672;28;20031;-85
2022/07/29 03:23:02;;;;;;;3.83;2.40;;;;;;;;;;4949920;28;20047;-85
2022/07/29 03:25:27;;;;;;;3.10;2.00;;;;;;;;;;4949585;28;20411;-85
2022/07/29 03:27:52;;;;;;;4.13;2.33;;;;;;;;;;4949004;29;20050;-85
2022/07/29 03:30:18;;;;;;;3.28;2.33;;;;;;;;;;4944964;28;20511;-85
2022/07/29 03:32:44;;;;;;;2.88;1.90;;;;;;;;;;4948890;28;20511;-85
2022/07/29 03:35:09;;;;;;;4.43;2.28;;;;;;;;;;4948091;28;20043;-85
2022/07/29 03:37:36;;;;;;;4.18;2.20;;;;;;;;;;4949219;28;20054;-85
2022/07/29 03:40:04;;;;;;;3.42;2.22;;;;;;;;;;4950065;28;20426;-84
2022/07/29 03:42:36;;;;;;;2.97;2.00;;;;;;;;;;4962310;28;20169;-85
2022/07/29 03:45:07;;;;;;;5.72;2.33;;;;;;;;;;4943607;28;20051;-85
2022/07/29 03:47:37;;;;;;;3.72;2.20;;;;;;;;;;4949015;28;20039;-84
2022/07/29 03:50:06;;;;;;;3.45;1.92;;;;;;;;;;4943714;28;20114;-84
2022/07/29 03:52:32;;;;;;;3.33;2.40;;;;;;;;;;4947709;28;20411;-84
2022/07/29 03:54:58;;;;;;;4.40;2.20;;;;;;;;;;4950095;28;20030;-85
2022/07/29 03:57:27;;;;;;;7.20;2.40;;;;;;;;;;4949069;28;20035;-84
2022/07/29 03:59:53;;;;;;;3.20;2.38;;;;;;;;;;4964149;28;20049;-85
2022/07/29 04:02:19;;;;;;;3.35;2.15;;;;;;;;;;4963989;28;20043;-84
2022/07/29 04:04:44;;;;;;;3.45;2.00;;;;;;;;;;4948486;28;20576;-84
2022/07/29 04:07:14;;;;;;;3.65;2.15;;;;;;;;;;4949857;28;20027;-84
2022/07/29 04:09:40;;;;;;;3.42;2.15;;;;;;;;;;4948606;28;20031;-84
2022/07/29 04:12:05;;;;;;;2.75;2.17;;;;;;;;;;4949438;28;20458;-84
2022/07/29 04:14:32;;;;;;;3.03;2.20;;;;;;;;;;4947677;28;20038;-84
2022/07/29 04:16:58;;;;;;;4.63;2.20;;;;;;;;;;4947752;28;20074;-83
2022/07/29 04:19:23;;;;;;;3.38;2.03;;;;;;;;;;4949964;29;20031;-84
2022/07/29 04:21:48;;;;;;;6.05;2.03;;;;;;;;;;4947206;28;20078;-83
2022/07/29 04:24:14;;;;;;;2.45;2.03;;;;;;;;;;4949229;28;20102;-83
2022/07/29 04:26:39;;;;;;;5.32;2.33;;;;;;;;;;4946735;28;20043;-83
2022/07/29 04:29:04;;;;;;;5.63;2.42;;;;;;;;;;4948951;28;20522;-83
2022/07/29 04:31:30;;;;;;;5.68;2.13;;;;;;;;;;4947785;28;20031;-83
2022/07/29 04:33:55;;;;;;;5.97;1.90;;;;;;;;;;4947355;28;20031;-83
2022/07/29 04:36:20;;;;;;;4.32;2.20;;;;;;;;;;4944400;28;20102;-83
2022/07/29 04:38:46;;;;;;;5.05;2.20;;;;;;;;;;4945877;28;20059;-83
2022/07/29 04:41:11;;;;;;;4.68;2.45;;;;;;;;;;4944046;28;20094;-83
2022/07/29 04:43:36;;;;;;;5.65;2.28;;;;;;;;;;4960068;28;20047;-83
2022/07/29 04:46:03;;;;;;;3.08;1.90;;;;;;;;;;4944327;28;20038;-83
2022/07/29 04:48:29;;;;;;;4.35;2.25;;;;;;;;;;4946238;28;20404;-84
2022/07/29 04:50:54;;;;;;;4.15;2.28;;;;;;;;;;4946731;28;20526;-84
2022/07/29 04:53:19;;;;;;;3.90;2.10;;;;;;;;;;4949380;28;20031;-84
2022/07/29 04:55:45;;;;;;;7.28;2.55;;;;;;;;;;4964246;28;20026;-84
2022/07/29 04:58:11;;;;;;;4.07;2.10;;;;;;;;;;4949843;29;20855;-85
2022/07/29 05:00:36;;;;;;;5.07;2.40;;;;;;;;;;4964028;28;20057;-84
2022/07/29 05:03:01;;;;;;;3.47;2.15;;;;;;;;;;4950054;28;20090;-84
2022/07/29 05:05:27;;;;;;;4.70;2.28;;;;;;;;;;4949614;29;20126;-85
2022/07/29 05:07:53;;;;;;;9.27;2.45;;;;;;;;;;4951052;28;20090;-85
2022/07/29 05:10:18;;;;;;;3.72;2.17;;;;;;;;;;4950841;28;20042;-86
2022/07/29 05:12:44;;;;;;;3.15;2.00;;;;;;;;;;4963180;28;20171;-86
2022/07/29 05:15:09;;;;;;;4.97;2.15;;;;;;;;;;4949241;28;20047;-86
2022/07/29 05:17:35;;;;;;;5.50;2.15;;;;;;;;;;4950440;28;20049;-85
2022/07/29 05:20:01;;;;;;;3.50;2.40;;;;;;;;;;4950604;28;20050;-85
2022/07/29 05:22:26;;;;;;;4.93;2.70;;;;;;;;;;4949768;28;20102;-87
2022/07/29 05:24:52;;;;;;;4.93;2.50;;;;;;;;;;4953141;29;20090;-87
2022/07/29 05:27:17;;;;;;;4.32;2.13;;;;;;;;;;4951158;28;20043;-87
2022/07/29 05:29:43;;;;;;;6.05;2.60;;;;;;;;;;4952550;28;20035;-88
2022/07/29 05:32:08;;;;;;;5.55;2.10;;;;;;;;;;4952474;28;20046;-88
2022/07/29 05:34:33;;;;;;;7.22;2.42;;;;;;;;;;4953768;28;20043;-89
2022/07/29 05:36:59;;;;;;;3.75;2.30;;;;;;;;;;4952953;29;20023;-89
2022/07/29 05:39:24;;;;;;;6.50;2.30;;;;;;;;;;4953429;28;20094;-89
2022/07/29 05:41:50;;;;;;;5.80;2.45;;;;;;;;;;4954352;28;20122;-89
2022/07/29 05:44:15;;;;;;;10.70;3.40;;;;;;;;;;4951650;28;20045;-88
2022/07/29 05:46:40;;;;;;;8.55;2.92;;;;;;;;;;4953583;28;20031;-89
2022/07/29 05:49:07;;;;;;;7.35;3.03;;;;;;;;;;4952638;29;20047;-89
2022/07/29 05:51:35;;;;;;;4.70;3.10;;;;;;;;;;4952876;28;20032;-89
2022/07/29 05:54:01;;;;;;;6.28;2.95;;;;;;;;;;4951231;28;20031;-88
2022/07/29 05:56:27;;;;;;;7.03;3.67;;;;;;;;;;4952557;28;20032;-88
2022/07/29 05:58:52;;;;;;;5.32;2.92;;;;;;;;;;4951053;28;20046;-87
2022/07/29 06:01:18;;;;;;;8.73;3.22;;;;;;;;;;4951434;28;20693;-87
2022/07/29 06:03:43;;;;;;;4.22;2.63;;;;;;;;;;4967299;28;20065;-87
2022/07/29 06:06:09;;;;;;;8.45;3.53;;;;;;;;;;4950444;28;20118;-86
2022/07/29 06:08:36;;;;;;;6.03;3.50;;;;;;;;;;4965803;28;20047;-87
2022/07/29 06:11:01;;;;;;;7.95;3.03;;;;;;;;;;4966013;28;20043;-87
2022/07/29 06:13:27;;;;;;;5.60;3.38;;;;;;;;;;4948971;28;20038;-86
2022/07/29 06:15:52;;;;;;;6.07;3.40;;;;;;;;;;4949355;28;20046;-85
2022/07/29 06:18:18;;;;;;;7.43;3.38;;;;;;;;;;4948288;28;20787;-86
2022/07/29 06:20:43;;;;;;;6.97;3.13;;;;;;;;;;4950351;28;20422;-86
2022/07/29 06:23:09;;;;;;;5.40;3.30;;;;;;;;;;4949555;28;20062;-86
2022/07/29 06:25:36;;;;;;;5.75;2.97;;;;;;;;;;4962587;28;20454;-86
2022/07/29 06:28:02;;;;;;;8.63;3.20;;;;;;;;;;4948403;29;20031;-85
2022/07/29 06:30:28;;;;;;;5.13;3.25;;;;;;;;;;4949235;28;20557;-85
2022/07/29 06:32:54;;;;;;;7.18;3.35;;;;;;;;;;4945134;28;20534;-83
2022/07/29 06:35:19;;;;;;;4.93;3.33;;;;;;;;;;4949615;28;20531;-84
2022/07/29 06:37:45;;;;;;;8.68;3.70;;;;;;;;;;4946802;28;20023;-84
2022/07/29 06:42:55;;;;;;;5.18;3.10;;;;;;;;;;4945427;29;20062;-84
2022/07/29 06:45:20;;;;;;;6.28;3.03;;;;;;;;;;4947820;28;20430;-84
2022/07/29 06:47:46;;;;;;;5.43;3.75;;;;;;;;;;4947525;28;20035;-83
2022/07/29 06:50:12;;;;;;;9.90;3.05;;;;;;;;;;4949347;28;20050;-84
2022/07/29 06:52:38;;;;;;;5.05;3.70;;;;;;;;;;4947235;28;20027;-83
2022/07/29 06:55:04;;;;;;;6.05;3.10;;;;;;;;;;4951297;29;20023;-83
2022/07/29 06:57:29;;;;;;;8.55;3.70;;;;;;;;;;4962516;28;20059;-83
2022/07/29 06:59:57;;;;;;;9.13;3.67;;;;;;;;;;4948999;28;20045;-83
2022/07/29 07:02:23;;;;;;;4.70;3.60;;;;;;;;;;4949886;28;20422;-83
2022/07/29 07:04:48;;;;;;;5.70;3.60;;;;;;;;;;4950966;28;20503;-83
2022/07/29 07:07:14;;;;;;;7.20;3.67;;;;;;;;;;4966149;28;20459;-83
2022/07/29 07:09:39;;;;;;;6.43;3.80;;;;;;;;;;4950898;28;20569;-82
2022/07/29 07:12:05;;;;;;;5.53;3.60;;;;;;;;;;4950714;28;20511;-83
2022/07/29 07:14:31;;;;;;;6.88;3.85;;;;;;;;;;4947371;28;20047;-83
2022/07/29 07:16:56;;;;;;;7.07;3.58;;;;;;;;;;4944451;28;20132;-82
2022/07/29 07:19:21;;;;;;;10.75;4.00;;;;;;;;;;4946106;29;20038;-83
2022/07/29 07:21:47;;;;;;;6.05;3.88;;;;;;;;;;4945761;28;20038;-83
2022/07/29 07:24:12;;;;;;;4.93;3.65;;;;;;;;;;4943260;28;20054;-83
2022/07/29 07:26:39;;;;;;;6.35;3.50;;;;;;;;;;4943783;28;20151;-83
2022/07/29 07:29:05;;;;;;;6.53;3.72;;;;;;;;;;4948660;28;20122;-83
2022/07/29 07:31:30;;;;;;;5.38;3.70;;;;;;;;;;4962335;28;20106;-83
2022/07/29 07:33:55;;;;;;;7.20;3.67;;;;;;;;;;4940488;29;20027;-83
2022/07/29 07:36:21;;;;;;;7.57;3.80;;;;;;;;;;4948494;28;20039;-83
2022/07/29 07:38:47;;;;;;;6.00;3.50;;;;;;;;;;4949643;28;20125;-83
2022/07/29 07:41:12;;;;;;;5.43;3.55;;;;;;;;;;4946410;28;20519;-83
2022/07/29 07:43:37;;;;;;;6.38;3.35;;;;;;;;;;4946506;28;20043;-84
2022/07/29 07:46:03;;;;;;;7.88;3.47;;;;;;;;;;4950367;28;20035;-83
2022/07/29 07:48:29;;;;;;;6.68;3.95;;;;;;;;;;4948653;28;20516;-84
2022/07/29 07:50:54;;;;;;;5.88;3.55;;;;;;;;;;4962990;28;20522;-83
2022/07/29 07:53:19;;;;;;;6.38;3.53;;;;;;;;;;4947522;28;20050;-84
2022/07/29 07:55:45;;;;;;;4.32;3.30;;;;;;;;;;4945988;28;20055;-83
2022/07/29 07:58:10;;;;;;;6.10;3.60;;;;;;;;;;4948807;28;20039;-83
2022/07/29 08:00:36;;;;;;;7.55;3.70;;;;;;;;;;4946623;28;20037;-84
2022/07/29 08:03:02;;;;;;;6.03;3.50;;;;;;;;;;4947625;28;20529;-83
2022/07/29 08:05:28;;;;;;;4.05;2.97;;;;;;;;;;4946183;28;20565;-84
2022/07/29 08:07:53;;;;;;;5.18;3.30;;;;;;;;;;4943619;28;20043;-83
2022/07/29 08:13:08;;;;;;;4.95;3.47;;;;;;;;;;4946132;28;20755;-83
2022/07/29 08:15:35;;;;;;;6.05;3.75;;;;;;;;;;4963648;28;20110;-83
2022/07/29 08:18:00;;;;;;;5.53;3.53;;;;;;;;;;4949642;28;20035;-83
2022/07/29 08:20:26;;;;;;;5.22;3.42;;;;;;;;;;4947414;28;20050;-84
2022/07/29 08:22:52;;;;;;;6.95;4.30;;;;;;;;;;4946183;28;20617;-83
2022/07/29 08:25:20;;;;;;;5.90;3.20;;;;;;;;;;4948927;29;20019;-83
2022/07/29 08:27:46;;;;;;;6.30;3.28;;;;;;;;;;4949841;28;20031;-84
2022/07/29 08:30:11;;;;;;;5.75;3.28;;;;;;;;;;4949541;28;20043;-84
2022/07/29 08:32:37;;;;;;;6.20;3.33;;;;;;;;;;4948454;28;20039;-84
2022/07/29 08:35:03;;;;;;;10.23;3.55;;;;;;;;;;4948329;28;20043;-84
2022/07/29 08:37:28;;;;;;;6.95;2.92;;;;;;;;;;4948252;28;20027;-83
2022/07/29 08:39:53;;;;;;;5.40;3.20;;;;;;;;;;4946051;28;20023;-85
2022/07/29 08:42:20;;;;;;;7.43;3.05;;;;;;;;;;4957092;28;20035;-83
2022/07/29 08:44:45;;;;;;;6.63;3.15;;;;;;;;;;4947659;28;20063;-83
2022/07/29 08:47:13;;;;;;;6.13;3.60;;;;;;;;;;4961500;28;20508;-84
2022/07/29 08:49:39;;;;;;;6.05;2.88;;;;;;;;;;4945334;28;20039;-84
2022/07/29 08:52:05;;;;;;;6.07;2.83;;;;;;;;;;4948264;29;20020;-85
2022/07/29 08:54:30;;;;;;;4.95;3.20;;;;;;;;;;4962876;28;20048;-82
2022/07/29 08:56:57;;;;;;;6.03;3.10;;;;;;;;;;4947838;28;20039;-85
2022/07/29 08:59:26;;;;;;;4.07;2.75;;;;;;;;;;4946898;28;20041;-84
2022/07/29 09:01:53;;;;;;;3.38;2.70;;;;;;;;;;4947333;28;20400;-87
2022/07/29 09:04:19;;;;;;;7.35;2.92;;;;;;;;;;4943880;29;20478;-85
2022/07/29 09:06:47;;;;;;;6.00;3.10;;;;;;;;;;4943936;29;20140;-90
2022/07/29 09:09:13;;;;;;;5.35;3.13;;;;;;;;;;4940954;28;20039;-87
2022/07/29 09:11:39;;;;;;;4.32;2.88;;;;;;;;;;4941718;28;20043;-87
2022/07/29 09:14:05;;;;;;;7.45;2.70;;;;;;;;;;4951434;28;20530;-89
2022/07/29 09:16:52;;;;;;;4.63;2.83;;;;;;;;;;4952218;28;20038;-93
2022/07/29 09:19:34;;;;;;;3.70;2.75;;;;;;;;;;4947307;29;20043;-90
2022/07/29 09:22:01;;;;;;;9.43;2.80;;;;;;;;;;4964009;28;20040;-89
2022/07/29 09:24:41;;;;;;;6.60;2.97;;;;;;;;;;4947484;28;20066;-90
2022/07/29 09:27:22;;;;;;;6.65;3.20;;;;;;;;;;4950631;28;20541;-92
2022/07/29 09:30:10;;;;;;;5.00;2.75;;;;;;;;;;4947252;28;20050;-88
2022/07/29 09:32:57;;;;;;;3.45;2.63;;;;;;;;;;4948718;28;20036;-92
2022/07/29 09:35:25;;;;;;;6.05;2.97;;;;;;;;;;4947323;28;20043;-86
2022/07/29 09:37:50;;;;;;;6.43;2.55;;;;;;;;;;4938699;28;20062;-89
2022/07/29 09:40:18;;;;;;;3.72;2.70;;;;;;;;;;4947255;28;20023;-86
2022/07/29 09:42:45;;;;;;;4.50;2.67;;;;;;;;;;4953987;28;20054;-88
2022/07/29 09:45:11;;;;;;;7.53;3.25;;;;;;;;;;4969494;28;20055;-84
2022/07/29 09:47:44;;;;;;;5.68;2.92;;;;;;;;;;4953236;28;20074;-92
2022/07/29 09:50:11;;;;;;;3.97;3.22;;;;;;;;;;4951892;28;20051;-85
2022/07/29 09:52:50;;;;;;;5.15;2.75;;;;;;;;;;4951404;28;20090;-84
2022/07/29 09:55:16;;;;;;;7.97;2.92;;;;;;;;;;4953421;28;20473;-85
2022/07/29 09:57:42;;;;;;;6.15;2.65;;;;;;;;;;4952521;28;20575;-86
2022/07/29 10:00:12;;;;;;;4.22;2.75;;;;;;;;;;4943917;28;20682;-84
2022/07/29 10:02:40;;;;;;;5.85;2.75;;;;;;;;;;4950002;28;20039;-84
2022/07/29 10:05:16;;;;;;;6.45;2.80;;;;;;;;;;4950388;28;20043;-84
2022/07/29 10:07:47;;;;;;;10.63;2.88;;;;;;;;;;4948253;28;20027;-86
2022/07/29 10:10:20;;;;;;;9.55;2.63;;;;;;;;;;4950807;28;20090;-84
2022/07/29 10:13:05;;;;;;;;;;;;;;;;;;4942807;28;20522;-89
2022/07/29 10:15:37;;;;;;;5.93;2.78;;;;;;;;;;4945307;29;19914;-86
2022/07/29 10:18:02;;;;;;;6.38;2.80;;;;;;;;;;4965809;28;20103;-84
2022/07/29 10:20:28;;;;;;;3.53;2.50;;;;;;;;;;4950995;28;20032;-86
2022/07/29 10:22:54;;;;;;;6.25;2.45;;;;;;;;;;4968419;28;20455;-93
2022/07/29 10:25:20;;;;;;;6.80;3.47;;;;;;;;;;4950622;28;20031;-89
2022/07/29 10:27:47;;;;;;;4.95;2.80;;;;;;;;;;4946461;28;20041;-90
2022/07/29 10:30:14;;;;;;;7.95;2.60;;;;;;;;;;4949389;28;20034;-87
2022/07/29 10:33:01;;;;;;;4.20;2.67;;;;;;;;;;4942309;28;20043;-85
2022/07/29 10:35:39;;;;;;;5.20;2.60;;;;;;;;;;4945363;28;20039;-90
2022/07/29 10:38:36;;;;;;;5.68;2.90;;;;;;;;;;4962217;28;20039;-90
2022/07/29 10:41:26;;;;;;;5.32;2.90;;;;;;;;;;4945747;28;20076;-87
2022/07/29 10:44:09;;;;;;;4.65;2.50;;;;;;;;;;4943458;28;20174;-94
2022/07/29 10:46:39;;;;;;;4.85;2.72;;;;;;;;;;4964791;28;20044;-89
2022/07/29 10:49:15;;;;;;;4.03;3.00;;;;;;;;;;4958956;28;20054;-85
2022/07/29 10:51:50;;;;;;;3.80;2.60;;;;;;;;;;4945957;28;20530;-90
2022/07/29 10:54:16;;;;;;;4.75;3.47;;;;;;;;;;4945559;28;20044;-90
2022/07/29 10:56:42;;;;;;;4.97;2.65;;;;;;;;;;4947088;28;20053;-89
2022/07/29 10:59:19;;;;;;;7.90;3.00;;;;;;;;;;4950374;28;20035;-93
2022/07/29 11:01:46;;;;;;;4.25;2.70;;;;;;;;;;4963573;28;20076;-90
2022/07/29 11:04:12;;;;;;;3.60;2.70;;;;;;;;;;4941300;28;20031;-94
2022/07/29 11:07:02;;;;;;;5.38;2.70;;;;;;;;;;4947131;28;20043;-88
2022/07/29 11:09:30;;;;;;;5.05;2.80;;;;;;;;;;4959938;28;20133;-87
2022/07/29 11:11:56;;;;;;;4.60;2.45;;;;;;;;;;4944255;28;20043;-86
2022/07/29 11:14:56;;;;;;;5.38;2.20;;;;;;;;;;4943115;28;20043;-85
2022/07/29 11:17:21;;;;;;;3.83;2.78;;;;;;;;;;4941151;28;20917;-86
2022/07/29 11:19:48;;;;;;;4.55;2.60;;;;;;;;;;4947057;28;20070;-85
2022/07/29 11:22:32;;;;;;;6.93;2.38;;;;;;;;;;4945469;28;20031;-86
2022/07/29 11:25:24;;;;;;;6.20;2.70;;;;;;;;;;4947864;28;20043;-84
2022/07/29 11:27:52;;;;;;;7.18;2.70;;;;;;;;;;4957165;28;20633;-83
2022/07/29 11:30:17;;;;;;;2.55;2.10;;;;;;;;;;4936457;28;20075;-83
2022/07/29 11:32:44;;;;;;;5.80;2.55;;;;;;;;;;4942022;28;20074;-83
2022/07/29 11:35:23;;;;;;;4.50;2.72;;;;;;;;;;4942687;28;20101;-82
2022/07/29 11:38:22;;;;;;;5.68;2.78;;;;;;;;;;4939768;28;20537;-84
2022/07/29 11:41:26;;;;;;;3.55;2.67;;;;;;;;;;4941883;28;20582;-82
2022/07/29 11:43:52;;;;;;;5.22;2.67;;;;;;;;;;4960462;28;20051;-83
2022/07/29 11:46:50;;;;;;;3.58;2.60;;;;;;;;;;4949603;28;20035;-84
2022/07/29 11:49:20;;;;;;;4.82;3.13;;;;;;;;;;4953011;28;20054;-83
2022/07/29 11:51:57;;;;;;;7.13;3.22;;;;;;;;;;4962038;28;20050;-84
2022/07/29 11:54:34;;;;;;;7.53;3.00;;;;;;;;;;4950401;28;20044;-84
2022/07/29 11:57:00;;;;;;;3.88;3.08;;;;;;;;;;4947716;28;20031;-83
2022/07/29 11:59:26;;;;;;;3.75;2.88;;;;;;;;;;4962558;28;20455;-83
2022/07/29 12:01:56;;;;;;;6.03;3.22;;;;;;;;;;4949018;28;20954;-84
2022/07/29 12:04:26;;;;;;;5.75;3.22;;;;;;;;;;4949249;28;20094;-83
2022/07/29 12:06:52;;;;;;;5.00;2.97;;;;;;;;;;4948954;28;20460;-83
2022/07/29 12:09:18;;;;;;;4.93;2.97;;;;;;;;;;4949814;28;20035;-84
2022/07/29 12:11:44;;;;;;;9.73;3.65;;;;;;;;;;4947417;28;20422;-84
2022/07/29 12:14:27;;;;;;;7.35;2.92;;;;;;;;;;4948402;28;20546;-86
2022/07/29 12:16:52;;;;;;;7.50;3.10;;;;;;;;;;4949327;28;20075;-83
2022/07/29 12:19:18;;;;;;;5.93;2.97;;;;;;;;;;4948034;28;20046;-84
2022/07/29 12:21:54;;;;;;;4.22;3.08;;;;;;;;;;4946219;28;20036;-88
2022/07/29 12:24:22;;;;;;;5.03;3.22;;;;;;;;;;4948352;28;20042;-92
2022/07/29 12:26:59;;;;;;;5.70;3.25;;;;;;;;;;4952149;28;20571;-88
2022/07/29 12:29:29;;;;;;;4.97;3.42;;;;;;;;;;4949918;28;20047;-90
2022/07/29 12:31:55;;;;;;;6.63;3.22;;;;;;;;;;4964653;28;20790;-88
2022/07/29 12:34:23;;;;;;;6.00;3.33;;;;;;;;;;4948942;28;20027;-89
2022/07/29 12:36:52;;;;;;;7.05;3.38;;;;;;;;;;4947755;28;20675;-87
2022/07/29 12:39:18;;;;;;;7.18;3.05;;;;;;;;;;4951061;28;20039;-87
2022/07/29 12:41:43;;;;;;;7.40;3.10;;;;;;;;;;4940515;28;20042;-86
2022/07/29 12:44:09;;;;;;;5.82;2.90;;;;;;;;;;4949147;28;20061;-88
2022/07/29 12:46:35;;;;;;;6.55;3.08;;;;;;;;;;4948620;28;20031;-86
2022/07/29 12:49:01;;;;;;;7.25;3.45;;;;;;;;;;4944024;28;20020;-85
2022/07/29 12:51:31;;;;;;;5.10;3.25;;;;;;;;;;4940414;28;20039;-89
2022/07/29 12:54:08;;;;;;;6.05;3.20;;;;;;;;;;4942801;28;20133;-88
2022/07/29 12:56:34;;;;;;;5.45;3.13;;;;;;;;;;4953824;28;20066;-89
2022/07/29 12:58:59;;;;;;;7.55;3.40;;;;;;;;;;4958652;28;20078;-86
2022/07/29 13:01:27;;;;;;;5.90;3.30;;;;;;;;;;4941569;28;20122;-85
2022/07/29 13:03:53;;;;;;;4.32;2.88;;;;;;;;;;4942077;28;20090;-89
2022/07/29 13:06:29;;;;;;;5.38;2.95;;;;;;;;;;4943423;28;20059;-85
2022/07/29 13:09:04;;;;;;;11.25;3.75;;;;;;;;;;4944532;28;20434;-85
2022/07/29 13:11:35;;;;;;;5.22;3.70;;;;;;;;;;4963932;28;20035;-84
2022/07/29 13:14:01;;;;;;;3.70;2.78;;;;;;;;;;4952799;28;20138;-85
2022/07/29 13:16:27;;;;;;;8.27;3.22;;;;;;;;;;4952525;29;20554;-91
2022/07/29 13:19:07;;;;;;;5.47;3.08;;;;;;;;;;4951741;29;20122;-85
2022/07/29 13:21:33;;;;;;;5.57;2.78;;;;;;;;;;4953200;28;20036;-88
2022/07/29 13:23:59;;;;;;;5.85;2.67;;;;;;;;;;4952969;28;20058;-89
2022/07/29 13:26:25;;;;;;;7.10;2.83;;;;;;;;;;4955400;28;20058;-89
2022/07/29 13:28:50;;;;;;;4.53;2.75;;;;;;;;;;4969809;28;20442;-87
2022/07/29 13:31:15;;;;;;;5.45;2.42;;;;;;;;;;4968905;28;20122;-87
2022/07/29 13:33:41;;;;;;;4.57;2.90;;;;;;;;;;4955410;28;20049;-94
2022/07/29 13:36:07;;;;;;;4.43;2.30;;;;;;;;;;4953674;28;20039;-86
2022/07/29 13:38:32;;;;;;;6.65;2.53;;;;;;;;;;4952461;28;20109;-88
2022/07/29 13:40:58;;;;;;;5.65;2.53;;;;;;;;;;4947931;28;20055;-92
2022/07/29 13:43:23;;;;;;;4.57;2.38;;;;;;;;;;4956121;28;20147;-95
2022/07/29 13:45:49;;;;;;;5.47;3.08;;;;;;;;;;4953665;28;20047;-84
2022/07/29 13:48:14;;;;;;;2.83;2.53;;;;;;;;;;4950324;28;20035;-85
2022/07/29 13:50:40;;;;;;;3.83;2.65;;;;;;;;;;4949008;28;20533;-92
2022/07/29 13:53:05;;;;;;;3.25;2.35;;;;;;;;;;4951028;28;20078;-87
2022/07/29 13:55:30;;;;;;;4.72;2.70;;;;;;;;;;4953213;28;20041;-91
2022/07/29 13:57:56;;;;;;;5.53;2.58;;;;;;;;;;4954607;28;20039;-86
2022/07/29 14:00:23;;;;;;;2.47;2.22;;;;;;;;;;4959730;28;20483;-86
2022/07/29 14:02:48;;;;;;;6.88;2.45;;;;;;;;;;4967176;28;20049;-86
2022/07/29 14:05:14;;;;;;;5.28;2.25;;;;;;;;;;4951961;28;20146;-85
2022/07/29 14:07:39;;;;;;;4.57;2.60;;;;;;;;;;4951342;28;20070;-84
2022/07/29 14:10:06;;;;;;;5.25;2.42;;;;;;;;;;4952874;28;20078;-87
2022/07/29 14:12:31;;;;;;;5.88;2.80;;;;;;;;;;4961080;28;20031;-87
2022/07/29 14:14:57;;;;;;;7.97;2.95;;;;;;;;;;4947201;28;20051;-85
2022/07/29 14:17:22;;;;;;;2.70;2.42;;;;;;;;;;4950014;28;20082;-85
2022/07/29 14:19:47;;;;;;;2.00;1.80;;;;;;;;;;4967040;28;20041;-86
2022/07/29 14:22:13;;;;;;;4.28;2.28;;;;;;;;;;4953371;28;20037;-91
2022/07/29 14:24:39;;;;;;;3.45;2.20;;;;;;;;;;4954578;28;20094;-92
2022/07/29 14:27:06;;;;;;;5.45;2.30;;;;;;;;;;4964760;28;20742;-86
2022/07/29 14:29:31;;;;;;;9.85;2.30;;;;;;;;;;4951127;28;20067;-88
2022/07/29 14:31:57;;;;;;;4.55;2.35;;;;;;;;;;4951891;28;20078;-88
2022/07/29 14:34:22;;;;;;;5.72;2.15;;;;;;;;;;4951440;28;20211;-90
2022/07/29 14:36:47;;;;;;;3.72;2.30;;;;;;;;;;4950197;28;20558;-87
2022/07/29 14:39:14;;;;;;;3.75;2.22;;;;;;;;;;4954244;28;20604;-86
2022/07/29 14:41:39;;;;;;;2.28;2.03;;;;;;;;;;4947643;28;20126;-85
2022/07/29 14:44:04;;;;;;;5.20;2.30;;;;;;;;;;4960040;28;20043;-84
2022/07/29 14:46:30;;;;;;;6.45;2.22;;;;;;;;;;4947569;28;20565;-86
2022/07/29 14:48:55;;;;;;;5.30;2.10;;;;;;;;;;4944043;28;20023;-85
2022/07/29 14:51:21;;;;;;;2.63;2.10;;;;;;;;;;4947458;28;20050;-83
2022/07/29 14:53:46;;;;;;;2.85;2.10;;;;;;;;;;4947936;28;20041;-88
2022/07/29 14:56:12;;;;;;;5.50;2.10;;;;;;;;;;4948224;28;20043;-88
2022/07/29 14:58:37;;;;;;;4.47;1.98;;;;;;;;;;4948823;28;20027;-86
2022/07/29 15:01:02;;;;;;;4.15;2.17;;;;;;;;;;4962732;28;20468;-89